Time;durP1;ratioP1;P1;durP2;ratioP2;P2;SDS_P1;SDS_P2;PMS_P1;PMS_P2;Temp;Humidity;BMP_temperature;BMP_pressure;BME280_temperature;BME280_humidity;BME280_pressure;Samples;Min_cycle;Max_cycle;Signal;HPM_P1;HPM_P2
2023/01/01 00:01:06;;;;;;;585.57;475.30;;;10.70;99.90;;;;;;6208732;23;20425;-75
2023/01/01 00:03:34;;;;;;;579.13;458.10;;;10.70;99.90;;;;;;6209056;23;20446;-76
2023/01/01 06:09:22;;;;;;;24.20;22.20;;;11.40;99.90;;;;;;6197827;23;20525;-75
2023/01/01 06:11:48;;;;;;;23.30;20.70;;;11.30;99.90;;;;;;6211048;23;20669;-75
2023/01/01 06:14:15;;;;;;;23.57;21.73;;;11.30;99.90;;;;;;6210851;23;20910;-77
2023/01/01 06:16:42;;;;;;;24.60;22.50;;;11.30;99.90;;;;;;6211391;23;20914;-79
2023/01/01 06:19:09;;;;;;;22.80;21.17;;;11.20;99.90;;;;;;6211715;23;20840;-78
2023/01/01 06:21:35;;;;;;;24.03;22.33;;;11.20;99.90;;;;;;6211208;23;20408;-77
2023/01/01 06:24:02;;;;;;;23.33;21.23;;;11.20;99.90;;;;;;6210544;23;20409;-78
2023/01/01 06:26:32;;;;;;;22.87;21.10;;;11.10;99.90;;;;;;6210716;23;20963;-77
2023/01/01 06:29:00;;;;;;;24.23;22.20;;;11.20;99.90;;;;;;6210757;23;20427;-77
2023/01/01 06:31:28;;;;;;;23.57;21.50;;;11.10;99.90;;;;;;6211427;23;20423;-85
2023/01/01 06:33:55;;;;;;;22.27;20.77;;;11.20;99.90;;;;;;6211373;23;20515;-75
2023/01/01 06:36:24;;;;;;;22.27;20.27;;;11.20;99.90;;;;;;6210883;23;20479;-80
2023/01/01 06:38:52;;;;;;;23.50;21.67;;;11.10;99.90;;;;;;6210643;23;20412;-75
2023/01/01 06:41:21;;;;;;;23.57;21.60;;;11.10;99.90;;;;;;6210850;23;20793;-75
2023/01/01 06:43:49;;;;;;;25.00;22.87;;;11.00;99.90;;;;;;6210532;23;20408;-75
2023/01/01 06:46:18;;;;;;;22.40;20.73;;;11.00;99.90;;;;;;6210902;23;20810;-75
2023/01/01 06:48:46;;;;;;;21.97;20.10;;;11.00;99.90;;;;;;6211041;23;20409;-75
2023/01/01 06:51:15;;;;;;;20.80;19.30;;;11.00;99.90;;;;;;6211402;23;20416;-75
2023/01/01 06:53:42;;;;;;;20.00;18.57;;;10.90;99.90;;;;;;6211520;23;20417;-74
2023/01/01 06:56:09;;;;;;;22.57;20.57;;;10.90;99.90;;;;;;6210914;23;20896;-74
2023/01/01 06:58:36;;;;;;;18.93;17.60;;;10.90;99.90;;;;;;6210442;23;20872;-74
2023/01/01 07:01:05;;;;;;;21.67;19.87;;;10.90;99.90;;;;;;6210580;23;20428;-75
2023/01/01 07:03:32;;;;;;;22.00;20.40;;;10.80;99.90;;;;;;6210665;23;20524;-75
2023/01/01 07:05:59;;;;;;;21.87;20.20;;;10.80;99.90;;;;;;6210163;23;20435;-75
2023/01/01 07:08:26;;;;;;;20.87;19.30;;;10.70;99.90;;;;;;6210892;23;20437;-74
2023/01/01 07:10:55;;;;;;;25.43;23.13;;;10.70;99.90;;;;;;6211385;23;20748;-75
2023/01/01 07:13:22;;;;;;;31.10;28.30;;;10.60;99.90;;;;;;6210852;23;20516;-75
2023/01/01 07:15:49;;;;;;;39.00;35.47;;;10.50;99.90;;;;;;6210273;23;20413;-74
2023/01/01 07:18:17;;;;;;;44.93;40.40;;;10.30;99.90;;;;;;6210225;23;20409;-74
2023/01/01 07:20:44;;;;;;;48.83;43.67;;;10.20;99.90;;;;;;6209843;23;20416;-75
2023/01/01 07:23:11;;;;;;;49.90;44.53;;;10.20;99.90;;;;;;6209886;23;20420;-75
2023/01/01 07:25:41;;;;;;;53.00;47.40;;;10.10;99.90;;;;;;6210690;23;20459;-75
2023/01/01 07:31:24;;;;;;;58.33;50.20;;;10.10;99.90;;;;;;6193232;23;20411;-76
2023/01/01 07:33:52;;;;;;;67.70;59.70;;;10.00;99.90;;;;;;6207918;23;20412;-75
2023/01/01 07:36:18;;;;;;;67.33;60.13;;;10.00;99.90;;;;;;6210268;23;20397;-75
2023/01/01 07:38:45;;;;;;;66.80;59.20;;;10.00;99.90;;;;;;6210253;23;20415;-75
2023/01/01 07:41:12;;;;;;;65.23;57.53;;;9.90;99.90;;;;;;6210388;23;20416;-75
2023/01/01 07:43:38;;;;;;;69.83;61.90;;;9.80;99.90;;;;;;6210307;23;20417;-75
2023/01/01 07:46:05;;;;;;;77.23;67.33;;;9.80;99.90;;;;;;6209725;23;20784;-75
2023/01/01 07:48:32;;;;;;;75.33;66.30;;;9.70;99.90;;;;;;6210129;23;20404;-75
2023/01/01 07:51:00;;;;;;;85.07;73.87;;;9.80;99.90;;;;;;6210385;23;20404;-76
2023/01/01 07:53:26;;;;;;;80.33;71.00;;;9.80;99.90;;;;;;6210360;23;20417;-75
2023/01/01 07:55:53;;;;;;;93.30;77.57;;;9.80;99.90;;;;;;6207848;23;20474;-75
2023/01/01 07:58:21;;;;;;;89.23;77.30;;;9.80;99.90;;;;;;6207542;23;20520;-75
2023/01/01 08:00:48;;;;;;;97.07;80.37;;;9.80;99.90;;;;;;6210100;23;20413;-76
2023/01/01 08:03:16;;;;;;;71.47;62.20;;;9.90;99.90;;;;;;6209779;23;20906;-75
2023/01/01 08:05:42;;;;;;;71.67;63.87;;;10.10;99.90;;;;;;6210316;23;20515;-74
2023/01/01 08:08:11;;;;;;;66.00;59.13;;;10.20;99.90;;;;;;6210019;23;20475;-76
2023/01/01 08:10:38;;;;;;;69.93;62.77;;;10.40;99.90;;;;;;6210512;23;20405;-76
2023/01/01 08:13:07;;;;;;;72.23;62.47;;;10.40;99.90;;;;;;6210542;23;21209;-75
2023/01/01 08:15:34;;;;;;;80.77;71.67;;;10.50;99.90;;;;;;6210461;23;20435;-75
2023/01/01 08:18:02;;;;;;;81.53;67.73;;;10.40;99.90;;;;;;6210404;23;20420;-77
2023/01/01 08:20:31;;;;;;;84.93;74.63;;;10.20;99.90;;;;;;6209597;23;20958;-76
2023/01/01 08:22:57;;;;;;;87.70;77.13;;;10.10;99.90;;;;;;6209999;23;20420;-75
2023/01/01 08:25:26;;;;;;;90.93;78.90;;;10.00;99.90;;;;;;6210376;23;20759;-75
2023/01/01 08:27:52;;;;;;;86.50;77.30;;;9.90;99.90;;;;;;6209847;23;20498;-75
2023/01/01 08:30:19;;;;;;;87.67;77.33;;;9.90;99.90;;;;;;6209219;23;20473;-74
2023/01/01 08:32:46;;;;;;;94.90;84.40;;;9.80;99.90;;;;;;6208669;23;20409;-74
2023/01/01 08:35:12;;;;;;;96.67;84.23;;;9.80;99.90;;;;;;6210282;23;20408;-76
2023/01/01 08:37:39;;;;;;;93.80;82.83;;;9.70;99.90;;;;;;6210038;23;20401;-75
2023/01/01 08:40:07;;;;;;;98.03;86.40;;;9.80;99.90;;;;;;6209843;23;20420;-76
2023/01/01 08:42:35;;;;;;;99.27;81.83;;;9.80;99.90;;;;;;6210157;23;20405;-76
2023/01/01 08:45:02;;;;;;;93.77;78.50;;;9.80;99.90;;;;;;6210215;23;20456;-74
2023/01/01 08:47:28;;;;;;;97.90;81.67;;;9.90;99.90;;;;;;6210486;23;20449;-74
2023/01/01 08:49:55;;;;;;;93.27;79.60;;;10.10;99.90;;;;;;6210199;23;20412;-73
2023/01/01 08:52:22;;;;;;;86.70;72.50;;;10.40;99.90;;;;;;6209639;23;20896;-74
2023/01/01 08:54:49;;;;;;;81.57;69.20;;;10.70;99.90;;;;;;6210438;23;20458;-74
2023/01/01 08:57:15;;;;;;;68.37;61.07;;;11.10;99.90;;;;;;6210398;23;20409;-73
2023/01/01 08:59:43;;;;;;;58.47;52.33;;;11.50;99.90;;;;;;6210795;23;20736;-76
2023/01/01 09:02:11;;;;;;;52.63;47.23;;;12.00;99.90;;;;;;6210920;23;20415;-75
2023/01/01 09:04:38;;;;;;;44.13;40.07;;;12.60;99.90;;;;;;6207825;23;20415;-76
2023/01/01 09:07:05;;;;;;;41.33;37.27;;;13.10;99.90;;;;;;6210330;23;20585;-76
2023/01/01 09:09:31;;;;;;;37.17;33.97;;;13.50;99.90;;;;;;6210269;23;20892;-76
2023/01/01 09:12:02;;;;;;;38.47;35.07;;;13.80;99.90;;;;;;6210837;23;20409;-76
2023/01/01 09:14:30;;;;;;;41.37;37.80;;;14.10;99.90;;;;;;6208157;23;20397;-76
2023/01/01 09:16:58;;;;;;;42.60;38.50;;;14.20;99.90;;;;;;6208899;23;20405;-76
2023/01/01 09:19:25;;;;;;;48.70;43.80;;;13.90;99.90;;;;;;6211190;23;20416;-73
2023/01/01 09:21:52;;;;;;;54.07;48.67;;;13.60;99.90;;;;;;6210754;23;20424;-80
2023/01/01 09:24:19;;;;;;;58.37;52.47;;;13.20;99.90;;;;;;6211101;23;20413;-81
2023/01/01 09:26:46;;;;;;;58.10;52.40;;;12.80;99.90;;;;;;6211036;23;20736;-80
2023/01/01 09:29:17;;;;;;;59.47;53.00;;;12.50;99.90;;;;;;6211377;23;20691;-81
2023/01/01 09:31:44;;;;;;;63.40;56.90;;;12.40;99.90;;;;;;6211423;23;20420;-81
2023/01/01 09:34:12;;;;;;;64.73;57.90;;;12.20;99.90;;;;;;6211532;23;20784;-80
2023/01/01 09:36:39;;;;;;;53.10;47.40;;;12.20;99.90;;;;;;6211549;23;20448;-79
2023/01/01 09:39:06;;;;;;;60.37;53.87;;;12.30;99.90;;;;;;6211181;23;20773;-79
2023/01/01 09:41:46;;;;;;;61.10;54.70;;;12.50;99.90;;;;;;6211015;23;20634;-80
2023/01/01 09:44:26;;;;;;;57.67;52.23;;;12.60;99.90;;;;;;6210010;23;20412;-79
2023/01/01 09:46:54;;;;;;;61.07;54.87;;;12.60;99.90;;;;;;6210924;23;20400;-79
2023/01/01 09:49:32;;;;;;;55.80;50.13;;;12.60;99.90;;;;;;6208264;23;20439;-74
2023/01/01 09:52:04;;;;;;;56.70;50.80;;;12.60;99.90;;;;;;6209404;23;20423;-74
2023/01/01 09:54:33;;;;;;;56.17;50.67;;;12.80;99.90;;;;;;6210256;23;20433;-77
2023/01/01 09:57:05;;;;;;;50.07;45.20;;;13.00;99.90;;;;;;6210263;23;20416;-74
2023/01/01 09:59:32;;;;;;;50.23;45.10;;;13.30;99.90;;;;;;6207089;23;20471;-73
2023/01/01 10:02:11;;;;;;;50.13;44.93;;;13.50;99.90;;;;;;6209897;23;20439;-73
2023/01/01 10:04:54;;;;;;;52.17;47.13;;;13.60;99.90;;;;;;6209598;23;20424;-73
2023/01/01 10:07:29;;;;;;;49.60;44.37;;;13.70;99.90;;;;;;6209502;23;20452;-75
2023/01/01 10:10:02;;;;;;;48.33;43.67;;;13.80;99.90;;;;;;6210237;23;20402;-75
2023/01/01 10:12:36;;;;;;;45.87;41.60;;;14.00;99.90;;;;;;6207800;23;20686;-74
2023/01/01 10:15:12;;;;;;;48.10;43.27;;;14.20;99.90;;;;;;6208669;23;20875;-75
2023/01/01 10:17:43;;;;;;;46.93;42.47;;;14.30;99.90;;;;;;6207895;23;20852;-74
2023/01/01 10:20:21;;;;;;;46.60;42.30;;;14.40;99.90;;;;;;6204984;23;20847;-74
2023/01/01 10:22:53;;;;;;;49.00;44.00;;;14.50;99.90;;;;;;6205615;23;20397;-75
2023/01/01 10:25:22;;;;;;;49.27;44.57;;;14.60;99.90;;;;;;6207512;23;20467;-76
2023/01/01 10:27:53;;;;;;;52.23;46.87;;;14.50;99.90;;;;;;6209009;23;20447;-74
2023/01/01 10:30:21;;;;;;;51.97;47.13;;;14.50;99.90;;;;;;6208334;23;20452;-75
2023/01/01 10:32:49;;;;;;;47.00;42.70;;;14.50;99.90;;;;;;6208585;23;20409;-76
2023/01/01 10:35:19;;;;;;;47.27;42.83;;;14.60;99.90;;;;;;6209384;23;20443;-75
2023/01/01 10:37:46;;;;;;;47.70;43.10;;;14.80;99.90;;;;;;6209666;23;20417;-76
2023/01/01 10:40:18;;;;;;;48.93;44.23;;;14.80;99.90;;;;;;6209792;23;20408;-76
2023/01/01 10:42:48;;;;;;;45.63;41.10;;;14.90;99.90;;;;;;6211277;23;20412;-76
2023/01/01 10:45:17;;;;;;;49.93;45.13;;;15.00;99.90;;;;;;6211760;23;20456;-76
2023/01/01 10:48:12;;;;;;;45.43;40.90;;;15.10;99.90;;;;;;6211053;23;20998;-76
2023/01/01 10:50:45;;;;;;;44.80;40.70;;;15.30;99.90;;;;;;6211438;23;20412;-76
2023/01/01 10:53:25;;;;;;;42.10;38.10;;;15.60;99.90;;;;;;6211838;23;20396;-75
2023/01/01 10:55:59;;;;;;;43.50;39.30;;;15.80;99.90;;;;;;6211014;23;20400;-76
2023/01/01 10:58:27;;;;;;;38.10;34.67;;;15.70;99.90;;;;;;6211361;23;20392;-75
2023/01/01 11:00:58;;;;;;;37.10;33.57;;;15.80;99.90;;;;;;6211027;23;20411;-76
2023/01/01 11:03:25;;;;;;;36.53;33.03;;;15.80;99.90;;;;;;6211418;23;20927;-76
2023/01/01 11:06:06;;;;;;;36.60;32.80;;;16.10;99.90;;;;;;6210929;23;20409;-75
2023/01/01 11:08:35;;;;;;;33.80;30.77;;;16.30;99.90;;;;;;6210792;23;20721;-75
2023/01/01 11:11:03;;;;;;;33.40;30.43;;;16.40;99.90;;;;;;6211031;23;20416;-75
2023/01/01 11:13:31;;;;;;;30.10;27.50;;;16.50;99.90;;;;;;6210881;23;20409;-76
2023/01/01 11:15:58;;;;;;;31.03;28.50;;;16.50;99.90;;;;;;6210965;23;20415;-75
2023/01/01 11:18:34;;;;;;;27.43;25.20;;;16.60;99.90;;;;;;6210875;23;20404;-76
2023/01/01 11:21:03;;;;;;;29.13;26.60;;;16.70;99.90;;;;;;6210725;23;20987;-76
2023/01/01 11:23:33;;;;;;;26.80;24.73;;;16.90;99.90;;;;;;6210284;23;20911;-75
2023/01/01 11:26:02;;;;;;;26.30;24.20;;;17.10;99.90;;;;;;6211047;23;20881;-76
2023/01/01 11:28:30;;;;;;;25.30;23.40;;;17.30;99.90;;;;;;6210782;23;20828;-75
2023/01/01 11:31:15;;;;;;;23.73;22.03;;;17.50;99.90;;;;;;6211112;23;20440;-75
2023/01/01 11:33:48;;;;;;;22.93;20.83;;;17.80;99.90;;;;;;6211025;23;20393;-75
2023/01/01 11:36:23;;;;;;;23.87;21.50;;;18.20;99.90;;;;;;6210578;23;20405;-76
2023/01/01 11:39:04;;;;;;;22.13;20.60;;;18.40;99.90;;;;;;6210512;23;21086;-75
2023/01/01 11:41:44;;;;;;;21.57;20.13;;;18.70;99.90;;;;;;6210872;23;20396;-75
2023/01/01 11:44:13;;;;;;;21.73;20.13;;;19.00;99.40;;;;;;6211473;23;20757;-76
2023/01/01 11:46:40;;;;;;;26.07;23.50;;;19.10;99.10;;;;;;6211644;23;20409;-76
2023/01/01 11:49:13;;;;;;;20.50;19.00;;;19.00;99.00;;;;;;6210647;23;20441;-75
2023/01/01 11:51:42;;;;;;;16.53;15.13;;;19.00;98.60;;;;;;6211315;23;20451;-75
2023/01/01 11:54:12;;;;;;;18.20;16.70;;;18.90;98.30;;;;;;6211328;23;20419;-75
2023/01/01 11:56:39;;;;;;;19.90;18.60;;;18.80;98.30;;;;;;6211002;23;20416;-75
2023/01/01 11:59:14;;;;;;;18.07;16.67;;;18.80;98.40;;;;;;6210678;23;20412;-75
2023/01/01 12:01:45;;;;;;;18.63;17.33;;;18.80;98.10;;;;;;6210928;23;20397;-74
2023/01/01 12:04:18;;;;;;;18.53;17.20;;;18.90;98.30;;;;;;6210292;23;20442;-75
2023/01/01 12:06:52;;;;;;;18.87;17.27;;;19.10;97.60;;;;;;6210328;23;20456;-75
2023/01/01 12:09:24;;;;;;;17.77;16.47;;;19.30;97.30;;;;;;6209689;23;20831;-75
2023/01/01 12:11:54;;;;;;;17.50;16.13;;;19.40;97.10;;;;;;6210394;23;20409;-75
2023/01/01 12:14:29;;;;;;;15.87;14.47;;;19.40;96.80;;;;;;6210349;23;20471;-75
2023/01/01 12:17:00;;;;;;;16.77;15.47;;;19.40;96.70;;;;;;6210552;23;20397;-74
2023/01/01 12:19:31;;;;;;;14.20;13.30;;;19.60;96.40;;;;;;6210683;23;20717;-74
2023/01/01 12:22:00;;;;;;;14.70;13.60;;;19.70;95.60;;;;;;6210398;23;20404;-74
2023/01/01 12:24:32;;;;;;;14.13;13.13;;;19.70;95.50;;;;;;6210858;23;20459;-74
2023/01/01 12:27:17;;;;;;;13.77;13.07;;;19.90;95.30;;;;;;6210844;23;20440;-74
2023/01/01 12:30:11;;;;;;;13.40;12.70;;;20.00;94.90;;;;;;6210663;23;20437;-74
2023/01/01 12:32:50;;;;;;;14.37;13.50;;;20.20;94.60;;;;;;6210304;23;20394;-75
2023/01/01 12:35:27;;;;;;;13.20;12.50;;;20.20;94.20;;;;;;6209908;23;20390;-75
2023/01/01 12:38:06;;;;;;;12.70;12.00;;;20.00;94.00;;;;;;6210330;23;20393;-75
2023/01/01 12:40:39;;;;;;;12.87;11.77;;;20.00;94.30;;;;;;6209494;23;20564;-75
2023/01/01 12:43:10;;;;;;;12.10;11.40;;;20.10;93.80;;;;;;6210114;23;20397;-75
2023/01/01 12:45:55;;;;;;;12.27;11.60;;;19.80;93.80;;;;;;6209745;23;20393;-74
2023/01/01 12:48:41;;;;;;;12.53;11.80;;;19.50;94.60;;;;;;6209883;23;20745;-74
2023/01/01 12:51:21;;;;;;;12.73;11.90;;;19.10;94.90;;;;;;6209702;23;20395;-75
2023/01/01 12:54:00;;;;;;;11.37;10.67;;;19.00;94.90;;;;;;6210059;23;20400;-74
2023/01/01 12:56:31;;;;;;;13.20;12.50;;;19.00;94.70;;;;;;6210393;23;20393;-75
2023/01/01 12:59:03;;;;;;;12.77;11.93;;;19.00;94.70;;;;;;6210297;23;20853;-75
2023/01/01 13:01:32;;;;;;;12.70;12.00;;;19.10;94.50;;;;;;6210366;23;20743;-75
2023/01/01 13:04:02;;;;;;;12.73;11.80;;;19.10;94.50;;;;;;6209864;23;20411;-75
2023/01/01 13:06:35;;;;;;;12.33;11.73;;;19.10;94.20;;;;;;6209934;23;20435;-74
2023/01/01 13:09:10;;;;;;;11.83;11.20;;;19.10;94.30;;;;;;6209924;23;20452;-74
2023/01/01 13:11:38;;;;;;;11.90;11.30;;;19.30;93.80;;;;;;6210304;23;20392;-75
2023/01/01 13:14:05;;;;;;;13.40;12.30;;;19.40;93.60;;;;;;6210044;23;20419;-75
2023/01/01 13:16:37;;;;;;;12.10;11.60;;;19.40;93.30;;;;;;6210001;23;20421;-75
2023/01/01 13:19:04;;;;;;;11.93;11.23;;;19.50;93.30;;;;;;6209668;23;20405;-74
2023/01/01 13:21:32;;;;;;;12.40;11.60;;;19.40;93.30;;;;;;6210043;23;20408;-76
2023/01/01 13:24:17;;;;;;;12.20;11.60;;;19.20;93.60;;;;;;6209808;23;20757;-77
2023/01/01 13:26:44;;;;;;;12.83;12.13;;;19.10;93.70;;;;;;6210370;23;20401;-76
2023/01/01 13:29:34;;;;;;;12.60;11.90;;;19.00;93.70;;;;;;6209809;23;20510;-76
2023/01/01 13:32:06;;;;;;;13.13;12.27;;;19.00;94.10;;;;;;6210106;23;20389;-76
2023/01/01 13:34:39;;;;;;;12.33;11.63;;;18.90;94.30;;;;;;6209813;23;20626;-76
2023/01/01 13:37:28;;;;;;;12.10;11.30;;;18.90;94.10;;;;;;6209965;23;20421;-75
2023/01/01 13:39:57;;;;;;;12.83;12.10;;;19.00;94.10;;;;;;6209722;23;20413;-76
2023/01/01 13:42:41;;;;;;;13.30;12.50;;;19.00;94.30;;;;;;6210076;23;20413;-74
2023/01/01 13:45:15;;;;;;;13.17;12.47;;;18.90;94.40;;;;;;6210282;23;20780;-75
2023/01/01 13:48:08;;;;;;;13.60;12.80;;;18.90;94.80;;;;;;6210243;23;20405;-76
2023/01/01 13:50:44;;;;;;;14.50;13.40;;;18.90;95.00;;;;;;6209731;23;20688;-76
2023/01/01 13:53:32;;;;;;;14.10;13.20;;;18.80;95.40;;;;;;6210131;23;20875;-76
2023/01/01 13:56:23;;;;;;;14.90;14.00;;;18.70;96.30;;;;;;6209771;23;20868;-75
2023/01/01 13:59:30;;;;;;;16.63;15.20;;;18.50;97.20;;;;;;6206776;23;20760;-75
2023/01/01 14:02:10;;;;;;;15.30;14.40;;;18.40;97.90;;;;;;6147246;23;20398;-75
2023/01/01 14:04:42;;;;;;;17.33;15.93;;;18.30;98.40;;;;;;6199998;23;20416;-76
2023/01/01 14:07:18;;;;;;;16.73;15.53;;;18.10;98.60;;;;;;6209849;23;20443;-76
2023/01/01 14:09:45;;;;;;;16.80;15.63;;;18.10;99.10;;;;;;6209782;23;20447;-76
2023/01/01 14:12:17;;;;;;;15.93;14.90;;;18.00;99.60;;;;;;6209937;23;20416;-76
2023/01/01 14:14:44;;;;;;;17.87;16.37;;;17.90;99.90;;;;;;6210351;23;20397;-75
2023/01/01 14:17:14;;;;;;;17.67;16.47;;;17.80;99.90;;;;;;6212084;23;20415;-75
2023/01/01 14:19:41;;;;;;;18.30;17.00;;;17.90;99.90;;;;;;6212523;23;20410;-76
2023/01/01 14:22:09;;;;;;;37.83;18.80;;;17.90;99.90;;;;;;6211627;23;20416;-76
2023/01/01 14:24:41;;;;;;;17.73;16.50;;;17.90;99.90;;;;;;6211450;23;20736;-76
2023/01/01 14:27:08;;;;;;;18.13;16.93;;;17.80;99.90;;;;;;6211663;23;20404;-76
2023/01/01 14:29:36;;;;;;;18.17;16.70;;;17.80;99.90;;;;;;6211627;23;20448;-75
2023/01/01 14:32:13;;;;;;;20.20;18.50;;;17.80;99.90;;;;;;6211908;23;20418;-75
2023/01/01 14:34:41;;;;;;;18.33;17.03;;;17.70;99.90;;;;;;6211921;23;20404;-75
2023/01/01 14:37:22;;;;;;;17.83;16.70;;;17.80;99.90;;;;;;6211086;23;20696;-75
2023/01/01 14:40:08;;;;;;;19.47;17.67;;;17.70;99.90;;;;;;6211590;23;20396;-74
2023/01/01 14:42:36;;;;;;;19.23;17.83;;;17.50;99.90;;;;;;6210882;23;20397;-75
2023/01/01 14:45:06;;;;;;;18.27;17.07;;;17.40;99.90;;;;;;6211264;23;20415;-75
2023/01/01 14:47:34;;;;;;;17.30;16.30;;;17.30;99.90;;;;;;6210686;23;20431;-75
2023/01/01 14:50:05;;;;;;;17.83;16.67;;;17.10;99.90;;;;;;6217549;23;20445;-77
2023/01/01 14:52:34;;;;;;;18.27;17.03;;;17.10;99.90;;;;;;6215426;23;20459;-84
2023/01/01 14:55:02;;;;;;;18.60;17.20;;;17.00;99.90;;;;;;6211331;23;20445;-78
2023/01/01 14:57:32;;;;;;;18.30;16.80;;;16.90;99.90;;;;;;6211195;23;20413;-79
2023/01/01 14:59:59;;;;;;;17.93;16.43;;;16.80;99.90;;;;;;6211215;23;20405;-79
2023/01/01 15:02:29;;;;;;;17.57;16.00;;;16.80;99.90;;;;;;6211280;23;20709;-79
2023/01/01 15:04:57;;;;;;;19.00;17.20;;;16.80;99.90;;;;;;6211228;23;20408;-79
2023/01/01 15:07:25;;;;;;;26.27;23.77;;;16.80;99.90;;;;;;6210947;23;20852;-78
2023/01/01 15:09:53;;;;;;;20.73;19.03;;;16.60;99.90;;;;;;6218161;23;20432;-78
2023/01/01 15:12:21;;;;;;;19.07;17.70;;;16.50;99.90;;;;;;6210971;23;20512;-79
2023/01/01 15:14:49;;;;;;;21.43;19.60;;;16.50;99.90;;;;;;6210508;23;20420;-78
2023/01/01 15:17:18;;;;;;;17.47;16.33;;;16.40;99.90;;;;;;6210706;23;20412;-79
2023/01/01 15:19:59;;;;;;;19.80;18.40;;;16.10;99.90;;;;;;6211187;23;20458;-80
2023/01/01 15:22:29;;;;;;;18.73;17.23;;;16.00;99.90;;;;;;6211400;23;20397;-78
2023/01/01 15:24:57;;;;;;;19.63;18.30;;;15.80;99.90;;;;;;6211278;23;20397;-79
2023/01/01 15:27:26;;;;;;;19.80;18.00;;;15.80;99.90;;;;;;6210941;23;20883;-79
2023/01/01 15:29:55;;;;;;;19.33;17.70;;;15.60;99.90;;;;;;6211185;23;20440;-79
2023/01/01 15:32:26;;;;;;;18.73;17.27;;;15.50;99.90;;;;;;6210929;23;20427;-79
2023/01/01 15:34:56;;;;;;;18.60;17.30;;;15.30;99.90;;;;;;6209543;23;20421;-79
2023/01/01 15:37:31;;;;;;;18.30;16.40;;;15.20;99.90;;;;;;6209999;23;20411;-80
2023/01/01 15:39:59;;;;;;;19.00;17.70;;;15.00;99.90;;;;;;6210327;23;20856;-79
2023/01/01 15:42:33;;;;;;;19.20;17.60;;;14.80;99.90;;;;;;6210244;23;20421;-79
2023/01/01 15:45:20;;;;;;;17.50;16.20;;;14.70;99.90;;;;;;6210293;23;20393;-79
2023/01/01 15:47:47;;;;;;;18.77;17.27;;;14.70;99.90;;;;;;6210261;23;20911;-78
2023/01/01 15:50:22;;;;;;;17.30;16.10;;;14.60;99.90;;;;;;6211527;23;20467;-79
2023/01/01 15:52:52;;;;;;;17.40;16.30;;;14.40;99.90;;;;;;6213014;23;20396;-78
2023/01/01 15:55:19;;;;;;;17.93;16.63;;;14.20;99.90;;;;;;6211915;23;20424;-79
2023/01/01 15:57:47;;;;;;;17.10;15.90;;;14.10;99.90;;;;;;6210896;23;20408;-78
2023/01/01 16:00:20;;;;;;;19.13;17.57;;;14.10;99.90;;;;;;6209837;23;20428;-78
2023/01/01 16:02:48;;;;;;;18.90;17.03;;;14.00;99.90;;;;;;6210139;23;20477;-79
2023/01/01 16:05:15;;;;;;;18.40;17.20;;;13.90;99.90;;;;;;6209910;23;20416;-80
2023/01/01 16:07:44;;;;;;;19.80;18.20;;;13.90;99.90;;;;;;6209983;23;20491;-79
2023/01/01 16:10:14;;;;;;;17.93;16.43;;;13.80;99.90;;;;;;6210093;23;20452;-79
2023/01/01 16:12:41;;;;;;;18.67;17.23;;;13.70;99.90;;;;;;6210346;23;20417;-79
2023/01/01 16:15:14;;;;;;;17.90;16.67;;;13.70;99.90;;;;;;6207901;23;20416;-79
2023/01/01 16:17:41;;;;;;;16.73;15.33;;;13.60;99.90;;;;;;6210160;23;20397;-78
2023/01/01 16:20:13;;;;;;;18.40;17.00;;;13.60;99.90;;;;;;6209748;23;20412;-78
2023/01/01 16:22:40;;;;;;;16.77;15.47;;;13.60;99.90;;;;;;6210016;23;20404;-78
2023/01/01 16:25:14;;;;;;;18.07;16.47;;;13.60;99.90;;;;;;6209205;23;20405;-79
2023/01/01 16:27:41;;;;;;;18.57;17.00;;;13.50;99.90;;;;;;6209258;23;20883;-79
2023/01/01 16:30:09;;;;;;;17.70;16.50;;;13.50;99.90;;;;;;6209306;23;20451;-78
2023/01/01 16:32:36;;;;;;;18.00;16.60;;;13.40;99.90;;;;;;6210220;23;20409;-79
2023/01/01 16:35:04;;;;;;;18.87;17.13;;;13.50;99.90;;;;;;6209759;23;20565;-80
2023/01/01 16:37:31;;;;;;;19.90;18.40;;;13.40;99.90;;;;;;6209588;23;20791;-79
2023/01/01 16:39:57;;;;;;;19.83;18.03;;;13.40;99.90;;;;;;6209341;23;20432;-79
2023/01/01 16:42:26;;;;;;;18.10;16.70;;;13.40;99.90;;;;;;6210197;23;20478;-80
2023/01/01 16:44:53;;;;;;;18.33;16.87;;;13.40;99.90;;;;;;6209488;23;20408;-79
2023/01/01 16:47:21;;;;;;;20.47;18.77;;;13.20;99.90;;;;;;6209392;23;20479;-78
2023/01/01 16:49:48;;;;;;;18.10;16.23;;;13.10;99.90;;;;;;6208981;23;20440;-79
2023/01/01 16:52:15;;;;;;;17.93;16.40;;;13.20;99.90;;;;;;6208887;23;20432;-78
2023/01/01 16:54:42;;;;;;;17.73;15.93;;;13.30;99.90;;;;;;6209657;23;20409;-79
2023/01/01 16:57:09;;;;;;;18.80;17.40;;;13.30;99.90;;;;;;6209847;23;20417;-78
2023/01/01 16:59:37;;;;;;;18.80;17.27;;;13.30;99.90;;;;;;6208918;23;20412;-77
2023/01/01 17:02:03;;;;;;;18.10;16.70;;;13.30;99.90;;;;;;6209285;23;20888;-78
2023/01/01 17:04:30;;;;;;;19.63;18.23;;;13.20;99.90;;;;;;6209445;23;20484;-79
2023/01/01 17:06:57;;;;;;;18.57;17.17;;;13.20;99.90;;;;;;6209541;23;20548;-78
2023/01/01 17:09:24;;;;;;;20.33;18.87;;;13.10;99.90;;;;;;6209489;23;20471;-77
2023/01/01 17:11:50;;;;;;;19.97;18.27;;;13.10;99.90;;;;;;6209113;23;20419;-78
2023/01/01 17:14:17;;;;;;;19.10;17.80;;;13.00;99.90;;;;;;6209420;23;20416;-78
2023/01/01 17:16:45;;;;;;;19.80;18.33;;;12.90;99.90;;;;;;6210540;23;20408;-79
2023/01/01 17:19:12;;;;;;;19.33;17.97;;;12.80;99.90;;;;;;6210322;23;20726;-78
2023/01/01 17:21:39;;;;;;;20.70;19.30;;;12.80;99.90;;;;;;6210129;23;20420;-79
2023/01/01 17:24:06;;;;;;;20.27;18.50;;;12.70;99.90;;;;;;6209955;23;20523;-81
2023/01/01 17:26:33;;;;;;;19.50;18.00;;;12.70;99.90;;;;;;6209764;23;20814;-81
2023/01/01 17:29:01;;;;;;;22.70;21.00;;;12.60;99.90;;;;;;6210049;23;20409;-80
2023/01/01 17:31:28;;;;;;;22.70;20.87;;;12.50;99.90;;;;;;6210025;23;20747;-79
2023/01/01 17:33:56;;;;;;;21.40;19.57;;;12.40;99.90;;;;;;6209668;23;20443;-80
2023/01/01 17:36:25;;;;;;;22.17;20.27;;;12.30;99.90;;;;;;6208611;23;20423;-79
2023/01/01 17:38:52;;;;;;;21.37;19.50;;;12.30;99.90;;;;;;6209031;23;20405;-79
2023/01/01 17:41:19;;;;;;;21.37;19.47;;;12.20;99.90;;;;;;6209014;23;20446;-79
2023/01/01 17:43:47;;;;;;;22.27;20.47;;;12.10;99.90;;;;;;6209010;23;20413;-79
2023/01/01 17:46:16;;;;;;;21.63;19.70;;;12.00;99.90;;;;;;6209513;23;20404;-79
2023/01/01 17:48:44;;;;;;;20.53;18.93;;;12.00;99.90;;;;;;6209435;23;20419;-79
2023/01/01 17:51:13;;;;;;;21.27;19.73;;;12.00;99.90;;;;;;6211870;23;20514;-79
2023/01/01 17:53:40;;;;;;;21.50;19.90;;;12.00;99.90;;;;;;6211577;23;20515;-79
2023/01/01 17:56:08;;;;;;;20.13;18.73;;;11.90;99.90;;;;;;6211260;23;20412;-78
2023/01/01 17:58:35;;;;;;;20.33;18.73;;;11.90;99.90;;;;;;6210893;23;20414;-78
2023/01/01 18:01:16;;;;;;;21.17;19.57;;;11.90;99.90;;;;;;6211154;23;20405;-78
2023/01/01 18:03:43;;;;;;;19.43;17.97;;;12.00;99.90;;;;;;6211509;23;20401;-78
2023/01/01 18:06:10;;;;;;;19.77;18.10;;;12.20;99.90;;;;;;6211612;23;20424;-78
2023/01/01 18:08:38;;;;;;;19.23;17.60;;;12.30;99.90;;;;;;6210926;23;20443;-79
2023/01/01 18:11:04;;;;;;;21.67;18.63;;;12.30;99.90;;;;;;6211161;23;20795;-79
2023/01/01 18:13:31;;;;;;;20.60;19.00;;;12.30;99.90;;;;;;6210739;23;20408;-79
2023/01/01 18:16:00;;;;;;;19.83;18.43;;;12.20;99.90;;;;;;6211576;23;20408;-82
2023/01/01 18:18:27;;;;;;;21.40;19.30;;;12.10;99.90;;;;;;6211645;23;20412;-74
2023/01/01 18:21:01;;;;;;;21.93;20.03;;;12.00;99.90;;;;;;6211420;23;20396;-74
2023/01/01 18:23:31;;;;;;;21.97;20.23;;;12.00;99.90;;;;;;6211392;23;20420;-74
2023/01/01 18:26:01;;;;;;;19.30;17.90;;;11.90;99.90;;;;;;6211084;23;20401;-74
2023/01/01 18:28:28;;;;;;;20.83;19.00;;;11.90;99.90;;;;;;6211720;23;20892;-82
2023/01/01 18:30:54;;;;;;;19.33;18.03;;;11.90;99.90;;;;;;6211016;23;20974;-82
2023/01/01 18:33:21;;;;;;;21.90;20.00;;;11.80;99.90;;;;;;6211441;23;20408;-82
2023/01/01 18:35:48;;;;;;;22.23;20.40;;;11.80;99.90;;;;;;6210868;23;20416;-80
2023/01/01 18:38:17;;;;;;;23.57;21.77;;;11.80;99.90;;;;;;6210323;23;20900;-80
2023/01/01 18:40:56;;;;;;;22.30;20.40;;;11.70;99.90;;;;;;6211291;23;20421;-80
2023/01/01 18:43:24;;;;;;;21.43;19.47;;;11.70;99.90;;;;;;6211689;23;20393;-79
2023/01/01 18:45:51;;;;;;;20.97;19.37;;;11.60;99.90;;;;;;6210879;23;20420;-79
2023/01/01 18:48:21;;;;;;;22.17;20.37;;;11.70;99.90;;;;;;6211458;23;20485;-80
2023/01/01 18:50:47;;;;;;;21.57;19.97;;;11.60;99.90;;;;;;6211536;23;20440;-80